sensor_id;sensor_type;location;lat;lon;timestamp;P1;durP1;ratioP1;P2;durP2;ratioP2
30635;SDS011;17400;52.392;9.750;2024-03-23T00:55:38;9.57;;;4.93;;
30635;SDS011;17400;52.392;9.750;2024-03-23T00:58:04;12.45;;;3.55;;
30635;SDS011;17400;52.392;9.750;2024-03-23T01:00:31;7.65;;;4.35;;
30635;SDS011;17400;52.392;9.750;2024-03-23T01:02:57;7.50;;;4.00;;
30635;SDS011;17400;52.392;9.750;2024-03-23T01:05:24;10.88;;;5.40;;
30635;SDS011;17400;52.392;9.750;2024-03-23T01:07:50;8.25;;;4.15;;
30635;SDS011;17400;52.392;9.750;2024-03-23T01:10:18;8.48;;;4.55;;
30635;SDS011;17400;52.392;9.750;2024-03-23T01:12:44;6.95;;;4.03;;
30635;SDS011;17400;52.392;9.750;2024-03-23T01:15:11;7.05;;;4.20;;
30635;SDS011;17400;52.392;9.750;2024-03-23T01:17:37;8.27;;;3.88;;
30635;SDS011;17400;52.392;9.750;2024-03-23T01:20:05;9.25;;;3.75;;
30635;SDS011;17400;52.392;9.750;2024-03-23T01:22:32;7.15;;;3.65;;
30635;SDS011;17400;52.392;9.750;2024-03-23T01:24:59;8.52;;;3.20;;
30635;SDS011;17400;52.392;9.750;2024-03-23T01:27:26;8.02;;;3.92;;
30635;SDS011;17400;52.392;9.750;2024-03-23T01:29:53;9.10;;;3.85;;
30635;SDS011;17400;52.392;9.750;2024-03-23T01:32:19;9.07;;;4.35;;
30635;SDS011;17400;52.392;9.750;2024-03-23T01:34:46;6.03;;;3.13;;
30635;SDS011;17400;52.392;9.750;2024-03-23T01:37:12;8.82;;;3.05;;
30635;SDS011;17400;52.392;9.750;2024-03-23T01:39:39;7.82;;;3.58;;
30635;SDS011;17400;52.392;9.750;2024-03-23T01:42:05;8.88;;;2.35;;
30635;SDS011;17400;52.392;9.750;2024-03-23T01:44:33;7.03;;;2.80;;
30635;SDS011;17400;52.392;9.750;2024-03-23T01:46:59;4.40;;;2.70;;
30635;SDS011;17400;52.392;9.750;2024-03-23T01:49:26;5.78;;;2.00;;
30635;SDS011;17400;52.392;9.750;2024-03-23T01:51:52;6.13;;;2.33;;
30635;SDS011;17400;52.392;9.750;2024-03-23T01:54:19;7.88;;;2.80;;
30635;SDS011;17400;52.392;9.750;2024-03-23T01:56:46;6.07;;;3.15;;
30635;SDS011;17400;52.392;9.750;2024-03-23T01:59:13;7.10;;;3.15;;
30635;SDS011;17400;52.392;9.750;2024-03-23T02:01:41;4.97;;;2.40;;
30635;SDS011;17400;52.392;9.750;2024-03-23T02:04:07;5.30;;;2.17;;
30635;SDS011;17400;52.392;9.750;2024-03-23T02:06:35;5.72;;;2.10;;
30635;SDS011;17400;52.392;9.750;2024-03-23T02:09:01;3.72;;;2.30;;
30635;SDS011;17400;52.392;9.750;2024-03-23T02:11:29;8.50;;;2.47;;
30635;SDS011;17400;52.392;9.750;2024-03-23T02:13:55;6.93;;;2.53;;
30635;SDS011;17400;52.392;9.750;2024-03-23T02:16:22;8.88;;;3.08;;
30635;SDS011;17400;52.392;9.750;2024-03-23T02:18:49;5.38;;;2.63;;
30635;SDS011;17400;52.392;9.750;2024-03-23T02:21:16;4.63;;;2.70;;
30635;SDS011;17400;52.392;9.750;2024-03-23T02:23:43;8.82;;;3.15;;
30635;SDS011;17400;52.392;9.750;2024-03-23T02:26:10;5.57;;;2.65;;
30635;SDS011;17400;52.392;9.750;2024-03-23T02:28:36;9.15;;;3.38;;
30635;SDS011;17400;52.392;9.750;2024-03-23T02:31:03;7.93;;;3.38;;
30635;SDS011;17400;52.392;9.750;2024-03-23T02:33:30;9.75;;;2.55;;
30635;SDS011;17400;52.392;9.750;2024-03-23T02:35:57;4.22;;;2.30;;
30635;SDS011;17400;52.392;9.750;2024-03-23T02:38:23;7.47;;;3.60;;
30635;SDS011;17400;52.392;9.750;2024-03-23T02:40:51;6.68;;;2.70;;
30635;SDS011;17400;52.392;9.750;2024-03-23T02:43:18;6.43;;;2.65;;
30635;SDS011;17400;52.392;9.750;2024-03-23T02:45:45;8.50;;;2.97;;
30635;SDS011;17400;52.392;9.750;2024-03-23T02:48:11;9.43;;;3.50;;
30635;SDS011;17400;52.392;9.750;2024-03-23T02:50:38;6.45;;;3.10;;
30635;SDS011;17400;52.392;9.750;2024-03-23T02:53:05;6.72;;;3.50;;
30635;SDS011;17400;52.392;9.750;2024-03-23T02:55:32;6.57;;;3.08;;
30635;SDS011;17400;52.392;9.750;2024-03-23T02:57:59;7.57;;;3.15;;
30635;SDS011;17400;52.392;9.750;2024-03-23T03:00:27;5.68;;;2.47;;
30635;SDS011;17400;52.392;9.750;2024-03-23T03:02:53;6.70;;;2.20;;
30635;SDS011;17400;52.392;9.750;2024-03-23T03:05:21;8.43;;;2.75;;
30635;SDS011;17400;52.392;9.750;2024-03-23T03:07:47;5.95;;;2.78;;
30635;SDS011;17400;52.392;9.750;2024-03-23T03:10:14;7.20;;;3.30;;
30635;SDS011;17400;52.392;9.750;2024-03-23T03:12:40;8.55;;;3.08;;
30635;SDS011;17400;52.392;9.750;2024-03-23T03:15:10;13.57;;;3.80;;
30635;SDS011;17400;52.392;9.750;2024-03-23T03:17:36;8.60;;;3.30;;
30635;SDS011;17400;52.392;9.750;2024-03-23T03:20:03;7.65;;;2.78;;
30635;SDS011;17400;52.392;9.750;2024-03-23T03:22:30;4.90;;;2.42;;
30635;SDS011;17400;52.392;9.750;2024-03-23T03:24:57;7.32;;;3.22;;
30635;SDS011;17400;52.392;9.750;2024-03-23T03:27:23;6.13;;;2.85;;
30635;SDS011;17400;52.392;9.750;2024-03-23T03:29:50;7.72;;;2.92;;
30635;SDS011;17400;52.392;9.750;2024-03-23T03:32:17;6.88;;;2.60;;
30635;SDS011;17400;52.392;9.750;2024-03-23T03:34:44;8.80;;;2.80;;
30635;SDS011;17400;52.392;9.750;2024-03-23T03:37:10;6.07;;;3.38;;
30635;SDS011;17400;52.392;9.750;2024-03-23T03:39:37;6.53;;;3.20;;
30635;SDS011;17400;52.392;9.750;2024-03-23T03:42:03;6.88;;;2.35;;
30635;SDS011;17400;52.392;9.750;2024-03-23T03:44:32;6.43;;;3.28;;
30635;SDS011;17400;52.392;9.750;2024-03-23T03:46:58;5.35;;;3.00;;
30635;SDS011;17400;52.392;9.750;2024-03-23T03:49:26;4.97;;;2.92;;
30635;SDS011;17400;52.392;9.750;2024-03-23T03:51:53;9.75;;;3.60;;
30635;SDS011;17400;52.392;9.750;2024-03-23T03:54:20;6.65;;;2.85;;
30635;SDS011;17400;52.392;9.750;2024-03-23T03:56:47;3.72;;;2.05;;
30635;SDS011;17400;52.392;9.750;2024-03-23T03:59:14;8.60;;;3.38;;
30635;SDS011;17400;52.392;9.750;2024-03-23T04:01:40;4.53;;;3.13;;
30635;SDS011;17400;52.392;9.750;2024-03-23T04:04:07;6.13;;;2.85;;
30635;SDS011;17400;52.392;9.750;2024-03-23T04:06:34;8.20;;;3.35;;
30635;SDS011;17400;52.392;9.750;2024-03-23T04:09:02;9.60;;;2.92;;
30635;SDS011;17400;52.392;9.750;2024-03-23T04:11:28;10.38;;;3.00;;
30635;SDS011;17400;52.392;9.750;2024-03-23T04:13:55;6.93;;;2.90;;
30635;SDS011;17400;52.392;9.750;2024-03-23T04:16:24;7.97;;;3.13;;
30635;SDS011;17400;52.392;9.750;2024-03-23T04:18:52;6.32;;;3.08;;
30635;SDS011;17400;52.392;9.750;2024-03-23T04:21:19;4.63;;;2.22;;
30635;SDS011;17400;52.392;9.750;2024-03-23T04:23:48;6.22;;;1.88;;
30635;SDS011;17400;52.392;9.750;2024-03-23T04:26:14;3.38;;;2.13;;
30635;SDS011;17400;52.392;9.750;2024-03-23T04:28:41;3.28;;;1.80;;
30635;SDS011;17400;52.392;9.750;2024-03-23T04:31:08;4.03;;;1.60;;
30635;SDS011;17400;52.392;9.750;2024-03-23T04:33:35;5.28;;;2.80;;
30635;SDS011;17400;52.392;9.750;2024-03-23T04:36:02;6.65;;;1.52;;
30635;SDS011;17400;52.392;9.750;2024-03-23T04:38:29;5.93;;;1.83;;
30635;SDS011;17400;52.392;9.750;2024-03-23T04:40:58;8.55;;;2.65;;
30635;SDS011;17400;52.392;9.750;2024-03-23T04:43:26;5.50;;;1.67;;
30635;SDS011;17400;52.392;9.750;2024-03-23T04:45:54;3.70;;;2.13;;
30635;SDS011;17400;52.392;9.750;2024-03-23T04:48:20;7.13;;;2.05;;
30635;SDS011;17400;52.392;9.750;2024-03-23T04:50:48;8.43;;;2.03;;
30635;SDS011;17400;52.392;9.750;2024-03-23T04:53:15;7.25;;;1.95;;
30635;SDS011;17400;52.392;9.750;2024-03-23T04:55:43;8.73;;;1.83;;
30635;SDS011;17400;52.392;9.750;2024-03-23T04:58:11;8.13;;;2.15;;
30635;SDS011;17400;52.392;9.750;2024-03-23T05:00:37;4.60;;;2.20;;
30635;SDS011;17400;52.392;9.750;2024-03-23T05:03:04;5.60;;;2.30;;
30635;SDS011;17400;52.392;9.750;2024-03-23T05:05:31;7.72;;;2.67;;
30635;SDS011;17400;52.392;9.750;2024-03-23T05:07:58;6.50;;;2.10;;
30635;SDS011;17400;52.392;9.750;2024-03-23T05:10:25;4.07;;;2.22;;
30635;SDS011;17400;52.392;9.750;2024-03-23T05:12:52;5.55;;;2.35;;
30635;SDS011;17400;52.392;9.750;2024-03-23T05:15:19;6.60;;;1.83;;
30635;SDS011;17400;52.392;9.750;2024-03-23T05:17:46;5.97;;;1.98;;
30635;SDS011;17400;52.392;9.750;2024-03-23T05:20:12;8.45;;;3.03;;
30635;SDS011;17400;52.392;9.750;2024-03-23T05:22:39;5.43;;;1.80;;
30635;SDS011;17400;52.392;9.750;2024-03-23T05:25:05;4.60;;;1.35;;
30635;SDS011;17400;52.392;9.750;2024-03-23T05:27:33;4.57;;;1.40;;
30635;SDS011;17400;52.392;9.750;2024-03-23T05:29:59;2.90;;;1.52;;
30635;SDS011;17400;52.392;9.750;2024-03-23T05:32:27;4.05;;;1.15;;
30635;SDS011;17400;52.392;9.750;2024-03-23T05:34:53;9.77;;;1.58;;
30635;SDS011;17400;52.392;9.750;2024-03-23T05:37:22;1.25;;;0.45;;
30635;SDS011;17400;52.392;9.750;2024-03-23T05:39:48;3.17;;;0.90;;
30635;SDS011;17400;52.392;9.750;2024-03-23T05:42:16;3.58;;;1.63;;
30635;SDS011;17400;52.392;9.750;2024-03-23T05:44:43;4.05;;;1.60;;
30635;SDS011;17400;52.392;9.750;2024-03-23T05:47:11;1.73;;;1.13;;
30635;SDS011;17400;52.392;9.750;2024-03-23T05:49:40;3.53;;;1.00;;
30635;SDS011;17400;52.392;9.750;2024-03-23T05:52:08;3.72;;;1.02;;
30635;SDS011;17400;52.392;9.750;2024-03-23T05:54:34;2.63;;;0.80;;
30635;SDS011;17400;52.392;9.750;2024-03-23T05:57:02;3.75;;;1.00;;
30635;SDS011;17400;52.392;9.750;2024-03-23T05:59:31;1.77;;;0.80;;
30635;SDS011;17400;52.392;9.750;2024-03-23T06:01:58;6.43;;;1.25;;
30635;SDS011;17400;52.392;9.750;2024-03-23T06:04:25;3.20;;;1.48;;
30635;SDS011;17400;52.392;9.750;2024-03-23T06:06:54;7.82;;;1.08;;
30635;SDS011;17400;52.392;9.750;2024-03-23T06:09:20;6.85;;;0.82;;
30635;SDS011;17400;52.392;9.750;2024-03-23T06:11:48;5.75;;;1.23;;
30635;SDS011;17400;52.392;9.750;2024-03-23T06:14:14;4.90;;;1.17;;
30635;SDS011;17400;52.392;9.750;2024-03-23T06:16:41;2.65;;;0.85;;
30635;SDS011;17400;52.392;9.750;2024-03-23T06:19:07;7.22;;;1.33;;
30635;SDS011;17400;52.392;9.750;2024-03-23T06:21:34;3.80;;;1.15;;
30635;SDS011;17400;52.392;9.750;2024-03-23T06:24:01;2.97;;;1.20;;
30635;SDS011;17400;52.392;9.750;2024-03-23T06:26:28;5.53;;;1.30;;
30635;SDS011;17400;52.392;9.750;2024-03-23T06:28:54;4.00;;;1.45;;
30635;SDS011;17400;52.392;9.750;2024-03-23T06:31:22;3.53;;;1.25;;
30635;SDS011;17400;52.392;9.750;2024-03-23T06:33:48;7.82;;;1.35;;
30635;SDS011;17400;52.392;9.750;2024-03-23T06:36:15;6.60;;;1.58;;
30635;SDS011;17400;52.392;9.750;2024-03-23T06:38:41;3.33;;;1.52;;
30635;SDS011;17400;52.392;9.750;2024-03-23T06:41:09;3.92;;;2.03;;
30635;SDS011;17400;52.392;9.750;2024-03-23T06:43:35;6.57;;;1.90;;
30635;SDS011;17400;52.392;9.750;2024-03-23T06:46:03;4.40;;;1.50;;
30635;SDS011;17400;52.392;9.750;2024-03-23T06:48:29;7.43;;;2.00;;
30635;SDS011;17400;52.392;9.750;2024-03-23T06:50:57;5.25;;;2.20;;
30635;SDS011;17400;52.392;9.750;2024-03-23T06:53:23;5.95;;;2.10;;
30635;SDS011;17400;52.392;9.750;2024-03-23T06:55:50;4.40;;;2.20;;
30635;SDS011;17400;52.392;9.750;2024-03-23T06:58:20;5.82;;;2.65;;
30635;SDS011;17400;52.392;9.750;2024-03-23T07:00:47;5.57;;;2.13;;
30635;SDS011;17400;52.392;9.750;2024-03-23T07:03:13;7.63;;;2.53;;
30635;SDS011;17400;52.392;9.750;2024-03-23T07:05:40;6.50;;;2.72;;
30635;SDS011;17400;52.392;9.750;2024-03-23T07:08:07;8.55;;;2.85;;
30635;SDS011;17400;52.392;9.750;2024-03-23T07:10:34;6.82;;;2.47;;
30635;SDS011;17400;52.392;9.750;2024-03-23T07:13:01;8.57;;;2.70;;
30635;SDS011;17400;52.392;9.750;2024-03-23T07:15:29;7.07;;;3.10;;
30635;SDS011;17400;52.392;9.750;2024-03-23T07:17:55;8.60;;;3.22;;
30635;SDS011;17400;52.392;9.750;2024-03-23T07:20:24;5.47;;;2.88;;
30635;SDS011;17400;52.392;9.750;2024-03-23T07:22:50;11.23;;;3.85;;
30635;SDS011;17400;52.392;9.750;2024-03-23T07:25:16;7.57;;;3.10;;
30635;SDS011;17400;52.392;9.750;2024-03-23T07:27:42;7.55;;;3.35;;
30635;SDS011;17400;52.392;9.750;2024-03-23T07:30:09;9.90;;;3.55;;
30635;SDS011;17400;52.392;9.750;2024-03-23T07:32:37;10.75;;;3.28;;
30635;SDS011;17400;52.392;9.750;2024-03-23T07:35:04;10.88;;;4.68;;
30635;SDS011;17400;52.392;9.750;2024-03-23T07:37:31;7.25;;;3.08;;
30635;SDS011;17400;52.392;9.750;2024-03-23T07:39:58;9.95;;;4.30;;
30635;SDS011;17400;52.392;9.750;2024-03-23T07:42:25;12.15;;;3.67;;
30635;SDS011;17400;52.392;9.750;2024-03-23T07:44:52;12.98;;;4.38;;
30635;SDS011;17400;52.392;9.750;2024-03-23T07:47:20;10.65;;;3.15;;
30635;SDS011;17400;52.392;9.750;2024-03-23T07:49:48;6.93;;;3.33;;
30635;SDS011;17400;52.392;9.750;2024-03-23T07:52:14;6.15;;;3.15;;
30635;SDS011;17400;52.392;9.750;2024-03-23T07:54:41;7.72;;;4.10;;
30635;SDS011;17400;52.392;9.750;2024-03-23T07:57:07;9.65;;;3.60;;
30635;SDS011;17400;52.392;9.750;2024-03-23T07:59:34;15.38;;;3.78;;
30635;SDS011;17400;52.392;9.750;2024-03-23T08:02:00;13.20;;;4.30;;
30635;SDS011;17400;52.392;9.750;2024-03-23T08:04:27;13.73;;;4.57;;
30635;SDS011;17400;52.392;9.750;2024-03-23T08:06:55;8.07;;;3.45;;
30635;SDS011;17400;52.392;9.750;2024-03-23T08:09:22;10.95;;;4.32;;
30635;SDS011;17400;52.392;9.750;2024-03-23T08:11:48;13.38;;;6.03;;
30635;SDS011;17400;52.392;9.750;2024-03-23T08:14:15;11.50;;;5.60;;
30635;SDS011;17400;52.392;9.750;2024-03-23T08:16:41;8.77;;;4.13;;
30635;SDS011;17400;52.392;9.750;2024-03-23T08:19:14;12.90;;;5.20;;
30635;SDS011;17400;52.392;9.750;2024-03-23T08:21:40;14.15;;;5.85;;
30635;SDS011;17400;52.392;9.750;2024-03-23T08:24:09;9.95;;;4.60;;
30635;SDS011;17400;52.392;9.750;2024-03-23T08:26:36;13.10;;;4.93;;
30635;SDS011;17400;52.392;9.750;2024-03-23T08:29:03;12.18;;;5.07;;
30635;SDS011;17400;52.392;9.750;2024-03-23T08:31:30;10.23;;;4.30;;
30635;SDS011;17400;52.392;9.750;2024-03-23T08:33:57;9.38;;;5.70;;
30635;SDS011;17400;52.392;9.750;2024-03-23T08:36:23;18.50;;;4.47;;
30635;SDS011;17400;52.392;9.750;2024-03-23T08:38:50;11.35;;;6.30;;
30635;SDS011;17400;52.392;9.750;2024-03-23T08:41:20;11.18;;;4.85;;
30635;SDS011;17400;52.392;9.750;2024-03-23T08:43:47;11.90;;;4.10;;
30635;SDS011;17400;52.392;9.750;2024-03-23T08:46:14;15.45;;;5.28;;
30635;SDS011;17400;52.392;9.750;2024-03-23T08:48:42;10.88;;;5.13;;
30635;SDS011;17400;52.392;9.750;2024-03-23T08:51:12;7.53;;;3.75;;
30635;SDS011;17400;52.392;9.750;2024-03-23T08:53:40;9.63;;;4.65;;
30635;SDS011;17400;52.392;9.750;2024-03-23T08:56:08;13.93;;;4.30;;
30635;SDS011;17400;52.392;9.750;2024-03-23T08:58:37;15.68;;;4.10;;
30635;SDS011;17400;52.392;9.750;2024-03-23T09:01:04;11.88;;;4.30;;
30635;SDS011;17400;52.392;9.750;2024-03-23T09:03:33;7.88;;;3.78;;
30635;SDS011;17400;52.392;9.750;2024-03-23T09:05:59;8.25;;;3.72;;
30635;SDS011;17400;52.392;9.750;2024-03-23T09:08:27;10.50;;;2.92;;
30635;SDS011;17400;52.392;9.750;2024-03-23T09:10:53;11.50;;;3.47;;
30635;SDS011;17400;52.392;9.750;2024-03-23T09:13:20;7.45;;;3.92;;
30635;SDS011;17400;52.392;9.750;2024-03-23T09:15:48;16.40;;;4.40;;
30635;SDS011;17400;52.392;9.750;2024-03-23T09:18:15;8.50;;;3.42;;
30635;SDS011;17400;52.392;9.750;2024-03-23T09:20:42;5.13;;;2.97;;
30635;SDS011;17400;52.392;9.750;2024-03-23T09:23:09;8.02;;;3.88;;
30635;SDS011;17400;52.392;9.750;2024-03-23T09:25:36;6.60;;;3.17;;
30635;SDS011;17400;52.392;9.750;2024-03-23T09:28:03;11.93;;;3.88;;
30635;SDS011;17400;52.392;9.750;2024-03-23T09:30:31;8.77;;;4.18;;
30635;SDS011;17400;52.392;9.750;2024-03-23T09:33:00;12.50;;;5.60;;
30635;SDS011;17400;52.392;9.750;2024-03-23T09:35:26;9.60;;;3.50;;
30635;SDS011;17400;52.392;9.750;2024-03-23T09:37:53;10.63;;;3.65;;
30635;SDS011;17400;52.392;9.750;2024-03-23T09:40:20;7.93;;;3.65;;
30635;SDS011;17400;52.392;9.750;2024-03-23T09:42:51;10.30;;;4.10;;
30635;SDS011;17400;52.392;9.750;2024-03-23T09:45:20;7.15;;;3.25;;
30635;SDS011;17400;52.392;9.750;2024-03-23T09:47:48;7.65;;;2.85;;
30635;SDS011;17400;52.392;9.750;2024-03-23T09:50:17;9.35;;;3.60;;
30635;SDS011;17400;52.392;9.750;2024-03-23T09:52:45;5.15;;;2.42;;
30635;SDS011;17400;52.392;9.750;2024-03-23T09:55:11;14.18;;;4.43;;
30635;SDS011;17400;52.392;9.750;2024-03-23T09:57:39;6.35;;;2.97;;
30635;SDS011;17400;52.392;9.750;2024-03-23T10:00:06;10.98;;;4.32;;
30635;SDS011;17400;52.392;9.750;2024-03-23T10:02:34;5.38;;;2.65;;
30635;SDS011;17400;52.392;9.750;2024-03-23T10:05:00;10.60;;;2.88;;
30635;SDS011;17400;52.392;9.750;2024-03-23T10:07:29;9.25;;;3.35;;
30635;SDS011;17400;52.392;9.750;2024-03-23T10:09:55;10.77;;;2.92;;
30635;SDS011;17400;52.392;9.750;2024-03-23T10:12:23;6.22;;;2.60;;
30635;SDS011;17400;52.392;9.750;2024-03-23T10:14:50;4.45;;;2.08;;
30635;SDS011;17400;52.392;9.750;2024-03-23T10:17:17;3.40;;;2.28;;
30635;SDS011;17400;52.392;9.750;2024-03-23T10:19:44;6.45;;;1.92;;
30635;SDS011;17400;52.392;9.750;2024-03-23T10:22:13;6.13;;;2.22;;
30635;SDS011;17400;52.392;9.750;2024-03-23T10:24:41;6.35;;;2.17;;
30635;SDS011;17400;52.392;9.750;2024-03-23T10:27:08;7.90;;;1.67;;
30635;SDS011;17400;52.392;9.750;2024-03-23T10:29:34;3.83;;;1.50;;
30635;SDS011;17400;52.392;9.750;2024-03-23T10:32:09;2.47;;;1.50;;
30635;SDS011;17400;52.392;9.750;2024-03-23T10:34:35;7.15;;;1.73;;
30635;SDS011;17400;52.392;9.750;2024-03-23T10:37:03;5.22;;;1.33;;
30635;SDS011;17400;52.392;9.750;2024-03-23T10:39:30;14.70;;;2.63;;
30635;SDS011;17400;52.392;9.750;2024-03-23T10:42:01;2.88;;;1.70;;
30635;SDS011;17400;52.392;9.750;2024-03-23T10:44:29;3.65;;;2.55;;
30635;SDS011;17400;52.392;9.750;2024-03-23T10:46:57;7.20;;;1.20;;
30635;SDS011;17400;52.392;9.750;2024-03-23T10:49:26;3.17;;;1.88;;
30635;SDS011;17400;52.392;9.750;2024-03-23T10:51:56;3.42;;;2.55;;
30635;SDS011;17400;52.392;9.750;2024-03-23T10:54:23;3.03;;;1.35;;
30635;SDS011;17400;52.392;9.750;2024-03-23T10:56:51;3.13;;;1.38;;
30635;SDS011;17400;52.392;9.750;2024-03-23T10:59:23;2.05;;;1.00;;
30635;SDS011;17400;52.392;9.750;2024-03-23T11:01:55;4.47;;;1.33;;
30635;SDS011;17400;52.392;9.750;2024-03-23T11:04:31;3.03;;;0.95;;
30635;SDS011;17400;52.392;9.750;2024-03-23T11:07:01;1.13;;;0.70;;
30635;SDS011;17400;52.392;9.750;2024-03-23T11:09:38;1.50;;;0.73;;
30635;SDS011;17400;52.392;9.750;2024-03-23T11:12:15;3.20;;;1.02;;
30635;SDS011;17400;52.392;9.750;2024-03-23T11:14:52;3.90;;;1.05;;
30635;SDS011;17400;52.392;9.750;2024-03-23T11:17:20;5.65;;;1.77;;
30635;SDS011;17400;52.392;9.750;2024-03-23T11:19:52;3.35;;;1.50;;
30635;SDS011;17400;52.392;9.750;2024-03-23T11:22:38;2.50;;;1.98;;
30635;SDS011;17400;52.392;9.750;2024-03-23T11:25:12;3.67;;;1.75;;
30635;SDS011;17400;52.392;9.750;2024-03-23T11:27:43;3.85;;;1.92;;
30635;SDS011;17400;52.392;9.750;2024-03-23T11:30:15;6.05;;;1.65;;
30635;SDS011;17400;52.392;9.750;2024-03-23T11:32:44;5.25;;;2.03;;
30635;SDS011;17400;52.392;9.750;2024-03-23T11:35:24;3.28;;;1.90;;
30635;SDS011;17400;52.392;9.750;2024-03-23T11:38:02;4.65;;;1.45;;
30635;SDS011;17400;52.392;9.750;2024-03-23T11:40:29;6.18;;;1.63;;
30635;SDS011;17400;52.392;9.750;2024-03-23T11:42:59;2.97;;;1.90;;
30635;SDS011;17400;52.392;9.750;2024-03-23T11:45:29;2.30;;;1.70;;
30635;SDS011;17400;52.392;9.750;2024-03-23T11:48:01;4.80;;;1.88;;
30635;SDS011;17400;52.392;9.750;2024-03-23T11:50:30;6.82;;;3.03;;
30635;SDS011;17400;52.392;9.750;2024-03-23T11:53:12;2.58;;;1.33;;
30635;SDS011;17400;52.392;9.750;2024-03-23T11:55:46;2.72;;;1.38;;
30635;SDS011;17400;52.392;9.750;2024-03-23T11:58:15;1.52;;;0.93;;
30635;SDS011;17400;52.392;9.750;2024-03-23T12:00:43;3.35;;;1.52;;
30635;SDS011;17400;52.392;9.750;2024-03-23T12:03:17;3.58;;;0.80;;
30635;SDS011;17400;52.392;9.750;2024-03-23T12:05:47;3.33;;;1.05;;
30635;SDS011;17400;52.392;9.750;2024-03-23T12:08:16;2.20;;;1.08;;
30635;SDS011;17400;52.392;9.750;2024-03-23T12:10:47;4.78;;;1.63;;
30635;SDS011;17400;52.392;9.750;2024-03-23T12:13:16;3.15;;;1.77;;
30635;SDS011;17400;52.392;9.750;2024-03-23T12:15:44;4.15;;;2.45;;
30635;SDS011;17400;52.392;9.750;2024-03-23T12:18:12;5.65;;;1.95;;
30635;SDS011;17400;52.392;9.750;2024-03-23T12:20:39;2.83;;;1.60;;
30635;SDS011;17400;52.392;9.750;2024-03-23T12:23:06;2.40;;;1.38;;
30635;SDS011;17400;52.392;9.750;2024-03-23T12:25:39;3.78;;;1.75;;
30635;SDS011;17400;52.392;9.750;2024-03-23T12:28:06;6.15;;;1.77;;
30635;SDS011;17400;52.392;9.750;2024-03-23T12:30:33;2.85;;;1.38;;
30635;SDS011;17400;52.392;9.750;2024-03-23T12:33:03;2.28;;;1.23;;
30635;SDS011;17400;52.392;9.750;2024-03-23T12:35:29;5.22;;;1.90;;
30635;SDS011;17400;52.392;9.750;2024-03-23T12:37:56;2.33;;;1.25;;
30635;SDS011;17400;52.392;9.750;2024-03-23T12:40:23;3.63;;;1.88;;
30635;SDS011;17400;52.392;9.750;2024-03-23T12:42:50;2.08;;;1.15;;
30635;SDS011;17400;52.392;9.750;2024-03-23T12:45:16;3.30;;;1.70;;
30635;SDS011;17400;52.392;9.750;2024-03-23T12:47:43;2.88;;;1.85;;
30635;SDS011;17400;52.392;9.750;2024-03-23T12:50:13;3.63;;;1.92;;
30635;SDS011;17400;52.392;9.750;2024-03-23T12:52:40;6.63;;;2.15;;
30635;SDS011;17400;52.392;9.750;2024-03-23T12:55:06;1.00;;;0.80;;
30635;SDS011;17400;52.392;9.750;2024-03-23T12:57:33;1.90;;;0.93;;
30635;SDS011;17400;52.392;9.750;2024-03-23T12:59:59;0.68;;;0.60;;
30635;SDS011;17400;52.392;9.750;2024-03-23T13:02:27;2.17;;;0.80;;
30635;SDS011;17400;52.392;9.750;2024-03-23T13:04:53;1.83;;;1.42;;
30635;SDS011;17400;52.392;9.750;2024-03-23T13:07:22;1.98;;;0.80;;
30635;SDS011;17400;52.392;9.750;2024-03-23T13:09:50;1.17;;;0.85;;
30635;SDS011;17400;52.392;9.750;2024-03-23T13:12:17;1.65;;;0.80;;
30635;SDS011;17400;52.392;9.750;2024-03-23T13:14:44;2.25;;;1.10;;
30635;SDS011;17400;52.392;9.750;2024-03-23T13:17:11;1.17;;;0.85;;
30635;SDS011;17400;52.392;9.750;2024-03-23T13:19:37;2.30;;;0.82;;
30635;SDS011;17400;52.392;9.750;2024-03-23T13:22:04;3.15;;;0.95;;
30635;SDS011;17400;52.392;9.750;2024-03-23T13:24:32;2.88;;;1.42;;
30635;SDS011;17400;52.392;9.750;2024-03-23T13:26:59;2.08;;;0.93;;
30635;SDS011;17400;52.392;9.750;2024-03-23T13:29:25;3.40;;;2.35;;
30635;SDS011;17400;52.392;9.750;2024-03-23T13:31:52;2.90;;;1.67;;
30635;SDS011;17400;52.392;9.750;2024-03-23T13:34:19;5.40;;;1.30;;
30635;SDS011;17400;52.392;9.750;2024-03-23T13:36:46;5.57;;;1.63;;
30635;SDS011;17400;52.392;9.750;2024-03-23T13:39:13;2.13;;;1.33;;
30635;SDS011;17400;52.392;9.750;2024-03-23T13:41:43;2.22;;;1.20;;
30635;SDS011;17400;52.392;9.750;2024-03-23T13:44:10;1.25;;;1.08;;
30635;SDS011;17400;52.392;9.750;2024-03-23T13:46:38;3.17;;;1.48;;
30635;SDS011;17400;52.392;9.750;2024-03-23T13:49:05;1.63;;;1.00;;
30635;SDS011;17400;52.392;9.750;2024-03-23T13:51:32;2.08;;;1.10;;
30635;SDS011;17400;52.392;9.750;2024-03-23T13:53:58;2.15;;;1.27;;
30635;SDS011;17400;52.392;9.750;2024-03-23T13:56:27;4.82;;;1.27;;
30635;SDS011;17400;52.392;9.750;2024-03-23T13:58:55;3.83;;;0.98;;
30635;SDS011;17400;52.392;9.750;2024-03-23T14:01:23;3.92;;;1.40;;
30635;SDS011;17400;52.392;9.750;2024-03-23T14:03:50;5.75;;;1.58;;
30635;SDS011;17400;52.392;9.750;2024-03-23T14:06:17;3.50;;;1.35;;
30635;SDS011;17400;52.392;9.750;2024-03-23T14:08:43;2.42;;;0.95;;
30635;SDS011;17400;52.392;9.750;2024-03-23T14:11:10;4.88;;;2.15;;
30635;SDS011;17400;52.392;9.750;2024-03-23T14:13:36;3.45;;;1.60;;
30635;SDS011;17400;52.392;9.750;2024-03-23T14:16:05;3.05;;;1.77;;
30635;SDS011;17400;52.392;9.750;2024-03-23T14:18:31;3.00;;;1.70;;
30635;SDS011;17400;52.392;9.750;2024-03-23T14:20:58;3.30;;;1.60;;
30635;SDS011;17400;52.392;9.750;2024-03-23T14:23:26;2.65;;;1.25;;
30635;SDS011;17400;52.392;9.750;2024-03-23T14:25:54;4.78;;;1.30;;
30635;SDS011;17400;52.392;9.750;2024-03-23T14:28:21;3.58;;;1.25;;
30635;SDS011;17400;52.392;9.750;2024-03-23T14:30:49;1.85;;;1.10;;
30635;SDS011;17400;52.392;9.750;2024-03-23T14:33:16;6.28;;;1.45;;
30635;SDS011;17400;52.392;9.750;2024-03-23T14:35:51;2.55;;;1.65;;
30635;SDS011;17400;52.392;9.750;2024-03-23T14:38:17;2.63;;;1.02;;
30635;SDS011;17400;52.392;9.750;2024-03-23T14:40:44;3.05;;;1.15;;
30635;SDS011;17400;52.392;9.750;2024-03-23T14:43:11;0.63;;;0.52;;
30635;SDS011;17400;52.392;9.750;2024-03-23T14:45:45;1.05;;;0.30;;
30635;SDS011;17400;52.392;9.750;2024-03-23T14:48:32;0.82;;;0.30;;
30635;SDS011;17400;52.392;9.750;2024-03-23T14:51:00;0.20;;;0.20;;
30635;SDS011;17400;52.392;9.750;2024-03-23T14:53:27;0.98;;;0.52;;
30635;SDS011;17400;52.392;9.750;2024-03-23T14:55:55;0.73;;;0.40;;
30635;SDS011;17400;52.392;9.750;2024-03-23T14:58:21;2.15;;;0.50;;
30635;SDS011;17400;52.392;9.750;2024-03-23T15:00:50;0.40;;;0.35;;
30635;SDS011;17400;52.392;9.750;2024-03-23T15:03:17;0.68;;;0.30;;
30635;SDS011;17400;52.392;9.750;2024-03-23T15:05:52;0.25;;;0.25;;
30635;SDS011;17400;52.392;9.750;2024-03-23T15:08:19;0.80;;;0.55;;
30635;SDS011;17400;52.392;9.750;2024-03-23T15:10:46;0.20;;;0.20;;
30635;SDS011;17400;52.392;9.750;2024-03-23T15:13:12;0.52;;;0.50;;
30635;SDS011;17400;52.392;9.750;2024-03-23T15:15:40;0.20;;;0.20;;
30635;SDS011;17400;52.392;9.750;2024-03-23T15:18:09;2.50;;;0.57;;
30635;SDS011;17400;52.392;9.750;2024-03-23T15:20:38;0.50;;;0.40;;
30635;SDS011;17400;52.392;9.750;2024-03-23T15:23:05;1.00;;;0.60;;
30635;SDS011;17400;52.392;9.750;2024-03-23T15:25:33;4.03;;;0.70;;
30635;SDS011;17400;52.392;9.750;2024-03-23T15:27:59;0.77;;;0.40;;
30635;SDS011;17400;52.392;9.750;2024-03-23T15:30:27;1.33;;;0.85;;
30635;SDS011;17400;52.392;9.750;2024-03-23T15:32:53;4.30;;;0.98;;
30635;SDS011;17400;52.392;9.750;2024-03-23T15:35:21;1.50;;;0.90;;
30635;SDS011;17400;52.392;9.750;2024-03-23T15:37:49;3.95;;;0.75;;
30635;SDS011;17400;52.392;9.750;2024-03-23T15:40:18;3.22;;;0.80;;
30635;SDS011;17400;52.392;9.750;2024-03-23T15:42:44;4.07;;;1.35;;